createdAt,value
2023-02-13T00:02:22.801Z,101850.44
2023-02-13T00:04:55.289Z,101853.95
2023-02-13T00:07:24.264Z,101849.09
2023-02-13T00:09:53.489Z,101851.52
2023-02-13T00:12:22.701Z,101849.92
2023-02-13T00:14:51.844Z,101850.13
2023-02-13T00:17:21.284Z,101853.91
2023-02-13T00:19:57.043Z,101852.63
2023-02-13T00:22:25.589Z,101853.88
2023-02-13T00:24:55.434Z,101854.86
2023-02-13T00:27:29.751Z,101851.26
2023-02-13T00:29:59.613Z,101853.17
2023-02-13T00:32:28.458Z,101859.92
2023-02-13T00:34:57.257Z,101857.04
2023-02-13T00:37:26.133Z,101854.05
2023-02-13T00:39:58.516Z,101861.38
2023-02-13T00:42:27.462Z,101861.33
2023-02-13T00:44:56.137Z,101860.47
2023-02-13T00:47:26.768Z,101860.69
2023-02-13T00:49:55.371Z,101861.94
2023-02-13T00:52:25.118Z,101860.54
2023-02-13T00:54:53.710Z,101856.90
2023-02-13T00:57:40.205Z,101859.23
2023-02-13T01:00:11.023Z,101859.57
2023-02-13T01:02:40.519Z,101855.02
2023-02-13T01:05:12.214Z,101857.60
2023-02-13T01:07:40.966Z,101855.69
2023-02-13T01:10:20.786Z,101852.69
2023-02-13T01:12:50.419Z,101859.92
2023-02-13T01:15:19.319Z,101859.90
2023-02-13T01:17:49.397Z,101860.19
2023-02-13T01:20:20.819Z,101857.52
2023-02-13T01:22:52.442Z,101861.70
2023-02-13T01:25:22.701Z,101863.36
2023-02-13T01:27:52.749Z,101864.02
2023-02-13T01:30:23.275Z,101864.77
2023-02-13T01:32:53.819Z,101861.55
2023-02-13T01:35:22.803Z,101861.54
2023-02-13T01:37:52.631Z,101863.89
2023-02-13T01:40:21.536Z,101860.95
2023-02-13T01:42:51.615Z,101861.27
2023-02-13T01:45:28.708Z,101863.63
2023-02-13T01:48:05.237Z,101864.16
2023-02-13T01:50:43.656Z,101861.87
2023-02-13T01:53:21.342Z,101866.91
2023-02-13T01:56:01.828Z,101868.30
2023-02-13T01:58:33.479Z,101872.16
2023-02-13T02:01:02.450Z,101869.05
2023-02-13T02:03:45.108Z,101869.11
2023-02-13T02:06:35.260Z,101876.27
2023-02-13T02:09:09.019Z,101883.95
2023-02-13T02:11:59.842Z,101885.45
2023-02-13T02:14:29.738Z,101886.67
2023-02-13T02:16:59.053Z,101887.90
2023-02-13T02:20:00.093Z,101893.15
2023-02-13T02:22:59.737Z,101900.01
2023-02-13T02:25:45.818Z,101906.36
2023-02-13T02:28:59.428Z,101912.84
2023-02-13T02:32:03.014Z,101913.00
2023-02-13T02:35:19.644Z,101917.00
2023-02-13T02:37:52.200Z,101919.20
2023-02-13T02:40:27.446Z,101918.82
2023-02-13T02:43:15.192Z,101920.58
2023-02-13T02:46:06.599Z,101918.66
2023-02-13T02:49:04.857Z,101917.70
2023-02-13T02:51:39.391Z,101917.64
2023-02-13T02:54:34.305Z,101918.05
2023-02-13T02:57:08.171Z,101920.95
2023-02-13T02:59:55.982Z,101922.77
2023-02-13T03:02:43.663Z,101916.08
2023-02-13T03:05:53.835Z,101918.10
2023-02-13T03:08:43.478Z,101917.23
2023-02-13T03:11:31.394Z,101921.17
2023-02-13T03:14:01.536Z,101915.33
2023-02-13T03:16:49.255Z,101913.14
2023-02-13T03:19:48.531Z,101912.18
2023-02-13T03:22:26.664Z,101910.63
2023-02-13T03:25:35.748Z,101909.59
2023-02-13T03:28:26.335Z,101917.83
2023-02-13T03:31:22.235Z,101921.61
2023-02-13T03:34:09.768Z,101923.91
2023-02-13T03:37:20.581Z,101928.92
2023-02-13T03:40:10.234Z,101932.79
2023-02-13T03:43:07.441Z,101933.02
2023-02-13T03:45:53.720Z,101933.55
2023-02-13T03:48:49.697Z,101936.59
2023-02-13T03:51:44.392Z,101939.04
2023-02-13T03:54:17.225Z,101941.38
2023-02-13T03:57:06.568Z,101943.58
2023-02-13T03:59:41.170Z,101944.82
2023-02-13T04:02:15.020Z,101942.17
2023-02-13T04:04:56.534Z,101951.36
2023-02-13T04:07:32.351Z,101951.52
2023-02-13T04:10:06.867Z,101951.23
2023-02-13T04:12:45.546Z,101958.08
2023-02-13T04:15:21.878Z,101956.37
2023-02-13T04:17:54.070Z,101958.35
2023-02-13T04:20:24.790Z,101962.71
2023-02-13T04:22:53.728Z,101964.50
2023-02-13T04:25:22.745Z,101964.85
2023-02-13T04:27:55.517Z,101970.19
2023-02-13T04:30:25.341Z,101970.88
2023-02-13T04:32:55.454Z,101973.26
2023-02-13T04:35:26.060Z,101972.11
2023-02-13T04:37:58.109Z,101968.85
2023-02-13T04:40:27.726Z,101966.50
2023-02-13T04:42:56.613Z,101958.50
2023-02-13T04:45:26.225Z,101957.45
2023-02-13T04:47:57.266Z,101948.45
2023-02-13T04:50:25.886Z,101949.89
2023-02-13T04:52:56.081Z,101951.90
2023-02-13T04:55:26.074Z,101950.75
2023-02-13T04:57:56.215Z,101953.45
2023-02-13T05:00:27.022Z,101952.61
2023-02-13T05:03:15.802Z,101952.55
2023-02-13T05:05:45.034Z,101956.06
2023-02-13T05:08:18.330Z,101954.48
2023-02-13T05:10:47.546Z,101958.63
2023-02-13T05:13:16.933Z,101954.19
2023-02-13T05:15:48.927Z,101956.35
2023-02-13T05:18:18.353Z,101960.27
2023-02-13T05:21:07.261Z,101959.04
2023-02-13T05:23:36.266Z,101956.55
2023-02-13T05:26:05.407Z,101966.83
2023-02-13T05:29:09.684Z,101964.22
2023-02-13T05:31:38.518Z,101968.51
2023-02-13T05:34:07.631Z,101966.86
2023-02-13T05:36:37.221Z,101966.95
2023-02-13T05:39:06.490Z,101964.04
2023-02-13T05:41:36.133Z,101964.36
2023-02-13T05:44:05.242Z,101964.29
2023-02-13T05:46:35.164Z,101967.89
2023-02-13T05:49:05.718Z,101968.91
2023-02-13T05:51:34.486Z,101971.27
2023-02-13T05:54:03.143Z,101973.41
2023-02-13T05:56:32.140Z,101972.64
2023-02-13T05:59:00.989Z,101972.67
2023-02-13T06:01:30.381Z,101978.23
2023-02-13T06:04:00.940Z,101983.61
2023-02-13T06:06:31.650Z,101985.21
2023-02-13T06:09:00.297Z,101985.39
2023-02-13T06:11:29.364Z,101985.04
2023-02-13T06:13:58.055Z,101983.09
2023-02-13T06:16:34.865Z,101983.70
2023-02-13T06:19:03.565Z,101985.89
2023-02-13T06:21:33.828Z,101984.27
2023-02-13T06:24:02.718Z,101981.48
2023-02-13T06:26:31.503Z,101975.06
2023-02-13T06:29:00.918Z,101972.01
2023-02-13T06:31:29.925Z,101971.29
2023-02-13T06:33:58.610Z,101967.47
2023-02-13T06:36:28.410Z,101962.56
2023-02-13T06:38:57.098Z,101961.95
2023-02-13T06:41:25.899Z,101960.77
2023-02-13T06:44:00.425Z,101960.98
2023-02-13T06:46:29.464Z,101961.52
2023-02-13T06:48:58.270Z,101962.84
2023-02-13T06:51:27.144Z,101965.93
2023-02-13T06:53:55.760Z,101958.66
2023-02-13T06:56:26.651Z,101953.50
2023-02-13T06:58:55.702Z,101952.00
2023-02-13T07:01:24.680Z,101949.20
2023-02-13T07:03:53.591Z,101946.32
2023-02-13T07:06:22.334Z,101941.23
2023-02-13T07:08:55.503Z,101939.61
2023-02-13T07:11:24.856Z,101936.34
2023-02-13T07:13:53.694Z,101935.70
2023-02-13T07:16:26.002Z,101935.00
2023-02-13T07:18:54.826Z,101936.43
2023-02-13T07:21:23.726Z,101939.41
2023-02-13T07:23:53.001Z,101939.48
2023-02-13T07:26:21.792Z,101939.45
2023-02-13T07:28:59.426Z,101947.83
2023-02-13T07:31:35.413Z,101947.94
2023-02-13T07:34:04.139Z,101945.17
2023-02-13T07:36:33.180Z,101946.44
2023-02-13T07:39:01.813Z,101940.64
2023-02-13T07:41:30.531Z,101944.52
2023-02-13T07:43:59.262Z,101947.73
2023-02-13T07:46:28.417Z,101946.92
2023-02-13T07:48:59.754Z,101953.88
2023-02-13T07:51:29.377Z,101948.79
2023-02-13T07:53:58.018Z,101952.77
2023-02-13T07:56:26.755Z,101946.14
2023-02-13T07:58:55.615Z,101945.84
2023-02-13T08:01:24.603Z,101941.73
2023-02-13T08:03:53.438Z,101943.01
2023-02-13T08:06:22.792Z,101939.42
2023-02-13T08:09:11.828Z,101938.46
2023-02-13T08:11:56.227Z,101932.52
2023-02-13T08:14:28.729Z,101924.66
2023-02-13T08:17:03.807Z,101919.20
2023-02-13T08:19:33.043Z,101911.86
2023-02-13T08:22:03.936Z,101909.79
2023-02-13T08:24:33.506Z,101911.68
2023-02-13T08:27:02.190Z,101914.95
2023-02-13T08:29:31.854Z,101915.44
2023-02-13T08:32:00.790Z,101911.36
2023-02-13T08:34:31.105Z,101903.35
2023-02-13T08:36:59.988Z,101899.28
2023-02-13T08:39:28.701Z,101897.90
2023-02-13T08:41:57.551Z,101900.90
2023-02-13T08:44:27.970Z,101899.16
2023-02-13T08:46:58.708Z,101896.85
2023-02-13T08:49:27.618Z,101888.98
2023-02-13T08:51:56.280Z,101894.30
2023-02-13T08:54:25.127Z,101896.73
2023-02-13T08:56:56.731Z,101894.42
2023-02-13T08:59:26.436Z,101886.01
2023-02-13T09:01:55.209Z,101888.67
2023-02-13T09:04:24.246Z,101882.38
2023-02-13T09:06:53.183Z,101867.79
2023-02-13T09:09:23.215Z,101870.02
2023-02-13T09:11:52.735Z,101866.73
2023-02-13T09:14:22.205Z,101862.75
2023-02-13T09:16:51.555Z,101860.02
2023-02-13T09:19:20.281Z,101859.52
2023-02-13T09:21:48.903Z,101861.58
2023-02-13T09:24:17.749Z,101861.59
2023-02-13T09:26:46.502Z,101852.82
2023-02-13T09:29:15.726Z,101851.45
2023-02-13T09:31:45.505Z,101848.29
2023-02-13T09:34:15.104Z,101851.04
2023-02-13T09:36:46.072Z,101852.27
2023-02-13T09:39:14.846Z,101848.06
2023-02-13T09:41:44.164Z,101850.43
2023-02-13T09:44:40.580Z,101843.23
2023-02-13T09:47:17.139Z,101844.38
2023-02-13T09:49:53.178Z,101838.91
2023-02-13T09:52:21.746Z,101835.61
2023-02-13T09:54:50.693Z,101834.74
2023-02-13T09:57:26.364Z,101828.83
2023-02-13T10:00:27.298Z,101822.13
2023-02-13T10:02:58.747Z,101815.88
2023-02-13T10:05:27.948Z,101815.51
2023-02-13T10:08:03.926Z,101813.13
2023-02-13T10:11:04.572Z,101810.84
2023-02-13T10:13:34.370Z,101812.08
2023-02-13T10:16:10.401Z,101804.65
2023-02-13T10:19:01.936Z,101804.92
2023-02-13T10:21:33.822Z,101803.88
2023-02-13T10:24:06.908Z,101802.84
2023-02-13T10:26:45.921Z,101795.64
2023-02-13T10:29:33.577Z,101793.41
2023-02-13T10:32:05.282Z,101785.91
2023-02-13T10:34:37.918Z,101784.36
2023-02-13T10:37:12.563Z,101781.45
2023-02-13T10:39:41.993Z,101780.20
2023-02-13T10:42:28.009Z,101779.56
2023-02-13T10:45:23.850Z,101774.21
2023-02-13T10:48:02.921Z,101771.41
2023-02-13T10:50:42.431Z,101765.75
2023-02-13T10:53:32.092Z,101759.13
2023-02-13T10:56:19.590Z,101767.98
2023-02-13T10:58:59.417Z,101767.73
2023-02-13T11:02:02.474Z,101759.54
2023-02-13T11:04:32.367Z,101762.70
2023-02-13T11:07:06.335Z,101758.44
2023-02-13T11:09:38.586Z,101750.41
2023-02-13T11:12:26.782Z,101744.87
2023-02-13T11:15:01.316Z,101746.06
2023-02-13T11:17:38.702Z,101744.52
2023-02-13T11:20:08.614Z,101740.73
2023-02-13T11:22:42.918Z,101737.70
2023-02-13T11:25:19.291Z,101729.03
2023-02-13T11:27:50.285Z,101728.67
2023-02-13T11:30:38.587Z,101725.77
2023-02-13T11:33:17.655Z,101721.59
2023-02-13T11:35:47.660Z,101714.93
2023-02-13T11:38:16.652Z,101708.73
2023-02-13T11:40:50.898Z,101701.10
2023-02-13T11:43:28.033Z,101700.03
2023-02-13T11:46:06.088Z,101698.18
2023-02-13T11:48:35.494Z,101700.23
2023-02-13T11:51:04.667Z,101695.35
2023-02-13T11:53:38.432Z,101694.12
2023-02-13T11:56:15.306Z,101688.72
2023-02-13T11:58:44.054Z,101682.11
2023-02-13T12:01:25.617Z,101686.58
2023-02-13T12:04:18.340Z,101678.81
2023-02-13T12:07:02.706Z,101673.17
2023-02-13T12:09:31.577Z,101666.92
2023-02-13T12:12:02.735Z,101657.98
2023-02-13T12:14:38.726Z,101654.49
2023-02-13T12:17:29.150Z,101642.67
2023-02-13T12:19:59.358Z,101639.72
2023-02-13T12:23:00.426Z,101635.42
2023-02-13T12:25:42.050Z,101635.52
2023-02-13T12:28:33.016Z,101640.52
2023-02-13T12:31:20.826Z,101634.88
2023-02-13T12:33:50.257Z,101632.02
2023-02-13T12:36:46.965Z,101623.73
2023-02-13T12:39:19.276Z,101626.58
2023-02-13T12:41:50.462Z,101627.63
2023-02-13T12:44:27.334Z,101626.03
2023-02-13T12:47:17.494Z,101626.83
2023-02-13T12:50:11.428Z,101625.80
2023-02-13T12:52:50.086Z,101623.14
2023-02-13T12:55:24.773Z,101622.89
2023-02-13T12:58:15.486Z,101617.19
2023-02-13T13:01:14.899Z,101612.76
2023-02-13T13:03:56.524Z,101615.30
2023-02-13T13:06:28.178Z,101608.43
2023-02-13T13:09:19.099Z,101605.85
2023-02-13T13:11:56.885Z,101605.30
2023-02-13T13:14:44.193Z,101607.42
2023-02-13T13:17:14.028Z,101606.20
2023-02-13T13:20:14.840Z,101603.40
2023-02-13T13:23:00.301Z,101596.19
2023-02-13T13:25:31.731Z,101593.79
2023-02-13T13:28:07.953Z,101593.33
2023-02-13T13:30:37.426Z,101590.89
2023-02-13T13:33:28.514Z,101590.58
2023-02-13T13:36:29.721Z,101591.13
2023-02-13T13:39:13.337Z,101583.35
2023-02-13T13:41:48.009Z,101582.47
2023-02-13T13:44:26.892Z,101577.02
2023-02-13T13:47:32.975Z,101572.60
2023-02-13T13:50:02.313Z,101572.08
2023-02-13T13:52:37.671Z,101574.67
2023-02-13T13:55:07.146Z,101576.20
2023-02-13T13:57:43.468Z,101573.46
2023-02-13T14:00:14.300Z,101569.59
2023-02-13T14:02:51.413Z,101567.11
2023-02-13T14:05:30.937Z,101569.99
2023-02-13T14:08:03.745Z,101565.48
2023-02-13T14:10:53.017Z,101559.27
2023-02-13T14:13:36.460Z,101554.96
2023-02-13T14:16:10.390Z,101548.02
2023-02-13T14:18:43.553Z,101541.55
2023-02-13T14:21:15.037Z,101535.58
2023-02-13T14:23:50.383Z,101538.55
2023-02-13T14:26:40.666Z,101535.31
2023-02-13T14:29:12.532Z,101534.84
2023-02-13T14:31:51.858Z,101530.30
2023-02-13T14:34:29.221Z,101530.52
2023-02-13T14:37:34.788Z,101528.48
2023-02-13T14:40:20.457Z,101529.80
2023-02-13T14:42:55.636Z,101522.65
2023-02-13T14:45:41.309Z,101522.64
2023-02-13T14:48:13.032Z,101520.93
2023-02-13T14:50:50.987Z,101517.30
2023-02-13T14:53:23.569Z,101512.34
2023-02-13T14:56:02.559Z,101506.57
2023-02-13T14:58:33.863Z,101508.40
2023-02-13T15:01:12.034Z,101498.61
2023-02-13T15:03:40.885Z,101491.38
2023-02-13T15:06:20.792Z,101493.91
2023-02-13T15:08:51.653Z,101491.75
2023-02-13T15:11:47.661Z,101485.83
2023-02-13T15:14:17.499Z,101483.16
2023-02-13T15:16:57.683Z,101481.20
2023-02-13T15:19:26.545Z,101479.63
2023-02-13T15:21:57.906Z,101474.73
2023-02-13T15:24:27.923Z,101474.55
2023-02-13T15:27:01.673Z,101470.36
2023-02-13T15:29:43.976Z,101474.19
2023-02-13T15:32:21.702Z,101484.03
2023-02-13T15:34:50.559Z,101491.40
2023-02-13T15:37:24.148Z,101498.63
2023-02-13T15:39:52.966Z,101494.62
2023-02-13T15:42:21.793Z,101490.35
2023-02-13T15:44:58.662Z,101485.35
2023-02-13T15:47:29.231Z,101488.92
2023-02-13T15:49:58.857Z,101492.27
2023-02-13T15:52:33.484Z,101488.73
2023-02-13T15:55:04.942Z,101486.30
2023-02-13T15:57:34.288Z,101481.95
2023-02-13T16:00:03.632Z,101478.69
2023-02-13T16:02:46.563Z,101477.89
2023-02-13T16:05:16.276Z,101471.10
2023-02-13T16:07:51.496Z,101465.08
2023-02-13T16:10:26.979Z,101462.05
2023-02-13T16:12:59.632Z,101455.22
2023-02-13T16:15:35.786Z,101455.52
2023-02-13T16:18:06.491Z,101453.38
2023-02-13T16:20:35.451Z,101452.45
2023-02-13T16:23:16.297Z,101445.91
2023-02-13T16:25:45.314Z,101444.02
2023-02-13T16:28:19.014Z,101439.27
2023-02-13T16:30:59.554Z,101438.72
2023-02-13T16:33:36.375Z,101432.27
2023-02-13T16:36:11.675Z,101430.42
2023-02-13T16:38:41.330Z,101425.31
2023-02-13T16:41:22.333Z,101420.77
2023-02-13T16:43:52.407Z,101418.24
2023-02-13T16:46:40.611Z,101414.55
2023-02-13T16:49:09.549Z,101412.71
2023-02-13T16:52:07.003Z,101412.52
2023-02-13T16:54:38.507Z,101414.83
2023-02-13T16:57:31.067Z,101415.73
2023-02-13T17:00:09.015Z,101410.69
2023-02-13T17:02:40.160Z,101405.67
2023-02-13T17:05:10.418Z,101404.82
2023-02-13T17:07:41.836Z,101407.19
2023-02-13T17:10:19.181Z,101409.62
2023-02-13T17:12:48.363Z,101410.66
2023-02-13T17:15:19.967Z,101406.83
2023-02-13T17:17:48.896Z,101404.30
2023-02-13T17:20:20.119Z,101403.69
2023-02-13T17:22:51.364Z,101400.70
2023-02-13T17:25:30.264Z,101404.11
2023-02-13T17:28:00.996Z,101406.23
2023-02-13T17:30:31.919Z,101405.38
2023-02-13T17:33:07.436Z,101401.68
2023-02-13T17:35:37.916Z,101393.62
2023-02-13T17:38:08.989Z,101394.35
2023-02-13T17:40:41.095Z,101396.23
2023-02-13T17:43:11.956Z,101396.27
2023-02-13T17:45:40.964Z,101394.29
2023-02-13T17:48:10.068Z,101398.61
2023-02-13T17:50:39.791Z,101392.25
2023-02-13T17:53:20.895Z,101391.77
2023-02-13T17:55:50.137Z,101394.46
2023-02-13T17:58:18.889Z,101392.84
2023-02-13T18:00:47.869Z,101390.08
2023-02-13T18:03:17.926Z,101387.89
2023-02-13T18:05:48.880Z,101386.27
2023-02-13T18:08:17.711Z,101385.77
2023-02-13T18:10:46.617Z,101386.76
2023-02-13T18:13:15.293Z,101376.54
2023-02-13T18:15:44.596Z,101372.11
2023-02-13T18:18:15.441Z,101369.71
2023-02-13T18:20:44.627Z,101372.80
2023-02-13T18:23:14.431Z,101374.27
2023-02-13T18:25:44.240Z,101373.53
2023-02-13T18:28:13.083Z,101374.27
2023-02-13T18:30:43.176Z,101384.44
2023-02-13T18:33:20.371Z,101385.96
2023-02-13T18:36:09.201Z,101379.06
2023-02-13T18:38:38.235Z,101380.04
2023-02-13T18:41:07.014Z,101373.07
2023-02-13T18:43:35.954Z,101369.25
2023-02-13T18:46:05.905Z,101366.76
2023-02-13T18:48:37.976Z,101365.08
2023-02-13T18:51:06.753Z,101362.88
2023-02-13T18:53:38.131Z,101351.20
2023-02-13T18:56:07.788Z,101346.04
2023-02-13T18:58:36.693Z,101343.77
2023-02-13T19:01:14.992Z,101346.29
2023-02-13T19:03:44.639Z,101342.77
2023-02-13T19:06:14.444Z,101346.40
2023-02-13T19:08:43.055Z,101345.03
2023-02-13T19:11:17.672Z,101343.83
2023-02-13T19:13:46.832Z,101342.13
2023-02-13T19:16:18.199Z,101333.02
2023-02-13T19:18:53.250Z,101332.29
2023-02-13T19:21:29.389Z,101331.20
2023-02-13T19:23:58.006Z,101331.77
2023-02-13T19:26:26.948Z,101324.64
2023-02-13T19:28:57.066Z,101325.85
2023-02-13T19:31:29.557Z,101327.79
2023-02-13T19:34:00.661Z,101319.09
2023-02-13T19:36:30.292Z,101310.19
2023-02-13T19:39:04.692Z,101306.27
2023-02-13T19:41:33.488Z,101301.31
2023-02-13T19:44:02.611Z,101295.16
2023-02-13T19:46:31.837Z,101293.13
2023-02-13T19:49:01.066Z,101295.44
2023-02-13T19:51:31.650Z,101298.98
2023-02-13T19:54:02.377Z,101290.69
2023-02-13T19:56:31.817Z,101283.09
2023-02-13T19:59:00.495Z,101276.02
2023-02-13T20:01:33.653Z,101270.33
2023-02-13T20:04:02.555Z,101264.59
2023-02-13T20:06:33.757Z,101265.13
2023-02-13T20:09:05.427Z,101250.52
2023-02-13T20:11:34.470Z,101240.70
2023-02-13T20:14:08.409Z,101234.78
2023-02-13T20:16:38.376Z,101221.91
2023-02-13T20:19:11.918Z,101209.32
2023-02-13T20:21:41.860Z,101206.73
2023-02-13T20:24:11.426Z,101211.52
2023-02-13T20:26:42.840Z,101215.18
2023-02-13T20:29:11.868Z,101211.51
2023-02-13T20:31:41.755Z,101208.79
2023-02-13T20:34:10.802Z,101204.88
2023-02-13T20:36:39.798Z,101202.35
2023-02-13T20:39:10.244Z,101200.75
2023-02-13T20:41:40.119Z,101206.38
2023-02-13T20:44:11.740Z,101201.87
2023-02-13T20:46:40.959Z,101191.34
2023-02-13T20:49:10.717Z,101189.92
2023-02-13T20:51:39.648Z,101194.01
2023-02-13T20:54:08.673Z,101198.16
2023-02-13T20:56:37.579Z,101194.05
2023-02-13T20:59:06.767Z,101187.14
2023-02-13T21:01:41.493Z,101184.33
2023-02-13T21:04:13.916Z,101179.32
2023-02-13T21:06:42.657Z,101166.27
2023-02-13T21:09:11.863Z,101163.95
2023-02-13T21:11:43.418Z,101159.02
2023-02-13T21:14:12.411Z,101154.21
2023-02-13T21:16:41.476Z,101147.30
2023-02-13T21:19:13.542Z,101145.11
2023-02-13T21:21:44.371Z,101140.45
2023-02-13T21:24:23.037Z,101141.89
2023-02-13T21:26:52.905Z,101135.89
2023-02-13T21:29:21.726Z,101134.48
2023-02-13T21:31:51.425Z,101132.52
2023-02-13T21:34:19.937Z,101130.55
2023-02-13T21:36:49.103Z,101132.94
2023-02-13T21:39:17.740Z,101135.98
2023-02-13T21:41:46.681Z,101133.38
2023-02-13T21:44:15.913Z,101135.61
2023-02-13T21:46:45.538Z,101135.80
2023-02-13T21:49:16.292Z,101135.34
2023-02-13T21:51:44.988Z,101127.98
2023-02-13T21:54:33.390Z,101125.40
2023-02-13T21:57:02.630Z,101125.98
2023-02-13T21:59:32.217Z,101128.44
2023-02-13T22:02:03.015Z,101120.14
2023-02-13T22:04:32.033Z,101125.48
2023-02-13T22:07:00.648Z,101122.68
2023-02-13T22:09:29.852Z,101119.19
2023-02-13T22:11:58.272Z,101121.90
2023-02-13T22:14:26.942Z,101119.46
2023-02-13T22:16:55.661Z,101114.63
2023-02-13T22:19:27.168Z,101110.98
2023-02-13T22:21:56.126Z,101097.73
2023-02-13T22:24:25.014Z,101084.80
2023-02-13T22:26:54.083Z,101071.20
2023-02-13T22:29:24.162Z,101066.91
2023-02-13T22:31:53.324Z,101065.29
2023-02-13T22:34:22.218Z,101061.42
2023-02-13T22:36:51.241Z,101062.41
2023-02-13T22:39:20.137Z,101061.77
2023-02-13T22:41:50.215Z,101061.36
2023-02-13T22:44:18.905Z,101049.42
2023-02-13T22:46:48.059Z,101044.35
2023-02-13T22:49:16.886Z,101038.64
2023-02-13T22:51:46.551Z,101037.30
2023-02-13T22:54:15.072Z,101036.31
2023-02-13T22:56:44.619Z,101027.09
2023-02-13T22:59:14.570Z,101021.40
2023-02-13T23:01:44.444Z,101017.14
2023-02-13T23:04:12.956Z,101014.44
2023-02-13T23:06:43.134Z,101008.64
2023-02-13T23:09:11.925Z,100998.87
2023-02-13T23:11:59.314Z,100992.27
2023-02-13T23:14:28.244Z,100988.88
2023-02-13T23:17:15.970Z,100979.70
2023-02-13T23:19:45.880Z,100975.30
2023-02-13T23:22:16.510Z,100974.33
2023-02-13T23:24:45.266Z,100971.27
2023-02-13T23:27:16.511Z,100961.63
2023-02-13T23:29:45.285Z,100951.23
2023-02-13T23:32:14.457Z,100936.52
2023-02-13T23:34:43.256Z,100935.87
2023-02-13T23:37:12.038Z,100933.23
2023-02-13T23:39:40.738Z,100932.52
2023-02-13T23:42:10.419Z,100927.32
2023-02-13T23:44:39.411Z,100923.77
2023-02-13T23:47:08.331Z,100916.84
2023-02-13T23:49:39.749Z,100906.13
2023-02-13T23:52:09.287Z,100909.00
2023-02-13T23:54:38.483Z,100903.86
2023-02-13T23:57:07.205Z,100900.98
2023-02-13T23:59:38.252Z,100900.61
